createdAt,value
2019-01-28T00:00:38.139Z,61.02
2019-01-28T00:03:05.499Z,61.15
2019-01-28T00:05:32.110Z,61.28
2019-01-28T00:07:58.457Z,61.36
2019-01-28T00:10:24.786Z,61.34
2019-01-28T00:12:51.345Z,61.13
2019-01-28T00:15:17.678Z,60.75
2019-01-28T00:17:44.271Z,61.10
2019-01-28T00:20:10.791Z,61.43
2019-01-28T00:22:37.111Z,62.06
2019-01-28T00:25:06.281Z,62.41
2019-01-28T00:27:32.906Z,62.76
2019-01-28T00:29:59.193Z,63.09
2019-01-28T00:32:25.532Z,63.37
2019-01-28T00:34:51.849Z,63.30
2019-01-28T00:37:18.424Z,63.18
2019-01-28T00:39:44.752Z,63.26
2019-01-28T00:42:11.059Z,63.13
2019-01-28T00:44:37.369Z,63.31
2019-01-28T00:47:03.677Z,63.07
2019-01-28T00:49:30.274Z,62.83
2019-01-28T00:51:56.583Z,62.89
2019-01-28T00:54:22.889Z,62.67
2019-01-28T00:56:49.209Z,62.77
2019-01-28T00:59:15.517Z,62.25
2019-01-28T01:01:42.143Z,61.69
2019-01-28T01:04:08.483Z,61.43
2019-01-28T01:06:34.861Z,61.15
2019-01-28T01:09:01.514Z,61.36
2019-01-28T01:11:29.741Z,61.71
2019-01-28T01:13:56.101Z,61.81
2019-01-28T01:16:22.657Z,61.97
2019-01-28T01:18:49.010Z,62.29
2019-01-28T01:21:15.554Z,62.38
2019-01-28T01:23:42.153Z,62.22
2019-01-28T01:26:08.698Z,62.22
2019-01-28T01:28:35.023Z,62.46
2019-01-28T01:31:01.671Z,62.41
2019-01-28T01:33:28.015Z,62.83
2019-01-28T01:35:54.340Z,62.98
2019-01-28T01:38:20.748Z,62.83
2019-01-28T01:40:47.178Z,62.53
2019-01-28T01:43:13.510Z,62.23
2019-01-28T01:45:39.832Z,62.46
2019-01-28T01:48:06.635Z,62.01
2019-01-28T01:50:33.219Z,61.40
2019-01-28T01:52:59.541Z,60.87
2019-01-28T01:55:25.836Z,60.86
2019-01-28T01:57:52.166Z,61.04
2019-01-28T02:00:19.045Z,61.27
2019-01-28T02:02:45.567Z,61.43
2019-01-28T02:05:12.070Z,61.65
2019-01-28T02:07:38.625Z,61.74
2019-01-28T02:10:09.638Z,61.55
2019-01-28T02:12:36.293Z,61.54
2019-01-28T02:15:07.764Z,61.80
2019-01-28T02:17:34.360Z,62.61
2019-01-28T02:20:00.929Z,63.15
2019-01-28T02:22:27.218Z,63.91
2019-01-28T02:24:53.537Z,64.32
2019-01-28T02:27:19.835Z,64.66
2019-01-28T02:29:46.184Z,65.43
2019-01-28T02:32:12.488Z,66.32
2019-01-28T02:34:38.823Z,66.33
2019-01-28T02:37:05.121Z,67.25
2019-01-28T02:39:31.468Z,68.92
2019-01-28T02:41:57.808Z,70.26
2019-01-28T02:44:24.403Z,70.63
2019-01-28T02:46:50.965Z,70.71
2019-01-28T02:49:17.288Z,69.68
2019-01-28T02:51:43.863Z,71.28
2019-01-28T02:54:10.464Z,72.70
2019-01-28T02:56:36.788Z,73.52
2019-01-28T02:59:03.200Z,74.47
2019-01-28T03:01:29.539Z,74.87
2019-01-28T03:03:55.874Z,76.04
2019-01-28T03:06:22.189Z,76.14
2019-01-28T03:08:48.536Z,75.87
2019-01-28T03:11:15.071Z,76.31
2019-01-28T03:13:41.659Z,75.90
2019-01-28T03:16:08.000Z,75.56
2019-01-28T03:18:34.349Z,76.35
2019-01-28T03:21:00.687Z,76.20
2019-01-28T03:23:27.608Z,76.12
2019-01-28T03:25:53.924Z,75.42
2019-01-28T03:28:20.221Z,74.45
2019-01-28T03:30:46.560Z,75.25
2019-01-28T03:33:12.849Z,75.80
2019-01-28T03:35:39.163Z,75.71
2019-01-28T03:38:05.494Z,75.48
2019-01-28T03:40:32.078Z,75.04
2019-01-28T03:42:58.649Z,74.73
2019-01-28T03:45:25.003Z,73.87
2019-01-28T03:47:51.350Z,73.29
2019-01-28T03:50:17.846Z,73.43
2019-01-28T03:52:45.051Z,74.07
2019-01-28T03:55:11.867Z,72.84
2019-01-28T03:57:38.311Z,72.64
2019-01-28T04:00:10.462Z,72.50
2019-01-28T04:02:36.872Z,72.15
2019-01-28T04:05:07.246Z,71.88
2019-01-28T04:07:33.589Z,72.57
2019-01-28T04:09:59.896Z,72.24
2019-01-28T04:12:26.210Z,71.86
2019-01-28T04:14:52.524Z,71.53
2019-01-28T04:17:19.102Z,71.57
2019-01-28T04:19:45.435Z,72.45
2019-01-28T04:22:11.762Z,72.98
2019-01-28T04:24:38.347Z,72.84
2019-01-28T04:27:04.918Z,72.50
2019-01-28T04:29:31.511Z,72.63
2019-01-28T04:31:57.808Z,72.62
2019-01-28T04:34:24.143Z,72.61
2019-01-28T04:36:50.481Z,72.14
2019-01-28T04:39:16.779Z,71.54
2019-01-28T04:41:43.114Z,71.07
2019-01-28T04:44:09.418Z,71.21
2019-01-28T04:46:35.998Z,70.89
2019-01-28T04:49:02.560Z,70.70
2019-01-28T04:51:30.678Z,70.33
2019-01-28T04:53:57.359Z,70.72
2019-01-28T04:56:23.695Z,70.25
2019-01-28T04:58:50.027Z,70.76
2019-01-28T05:01:16.601Z,70.82
2019-01-28T05:03:43.202Z,70.99
2019-01-28T05:06:10.766Z,70.51
2019-01-28T05:08:37.461Z,70.24
2019-01-28T05:11:03.784Z,70.09
2019-01-28T05:13:30.402Z,70.21
2019-01-28T05:15:56.903Z,70.44
2019-01-28T05:18:23.226Z,71.01
2019-01-28T05:20:49.968Z,71.12
2019-01-28T05:23:16.327Z,71.20
2019-01-28T05:25:42.788Z,71.19
2019-01-28T05:28:09.361Z,71.47
2019-01-28T05:30:35.690Z,71.29
2019-01-28T05:33:02.572Z,71.05
2019-01-28T05:35:29.182Z,71.40
2019-01-28T05:37:55.801Z,71.15
2019-01-28T05:40:23.836Z,71.13
2019-01-28T05:42:50.357Z,70.85
2019-01-28T05:45:20.713Z,70.77
2019-01-28T05:47:47.522Z,70.85
2019-01-28T05:50:15.126Z,70.69
2019-01-28T05:52:41.466Z,70.61
2019-01-28T05:55:11.933Z,70.49
2019-01-28T05:57:38.249Z,70.70
2019-01-28T06:00:16.019Z,70.92
2019-01-28T06:02:42.677Z,70.76
2019-01-28T06:05:09.793Z,70.59
2019-01-28T06:07:36.414Z,70.51
2019-01-28T06:10:10.433Z,70.25
2019-01-28T06:12:36.757Z,70.35
2019-01-28T06:15:10.920Z,70.47
2019-01-28T06:17:39.022Z,69.44
2019-01-28T06:20:14.078Z,69.75
2019-01-28T06:22:40.411Z,69.51
2019-01-28T06:25:07.035Z,69.14
2019-01-28T06:27:33.760Z,68.46
2019-01-28T06:30:00.092Z,68.55
2019-01-28T06:32:26.604Z,68.37
2019-01-28T06:34:52.905Z,68.21
2019-01-28T06:37:19.360Z,68.41
2019-01-28T06:39:45.918Z,68.28
2019-01-28T06:42:14.377Z,68.47
2019-01-28T06:44:40.983Z,68.69
2019-01-28T06:47:07.275Z,68.94
2019-01-28T06:49:33.639Z,68.77
2019-01-28T06:51:59.920Z,68.62
2019-01-28T06:54:26.271Z,68.40
2019-01-28T06:56:53.592Z,68.47
2019-01-28T06:59:19.951Z,68.09
2019-01-28T07:01:46.285Z,67.26
2019-01-28T07:04:12.878Z,66.90
2019-01-28T07:06:39.196Z,66.66
2019-01-28T07:09:07.415Z,66.47
2019-01-28T07:11:34.010Z,66.11
2019-01-28T07:14:00.573Z,65.80
2019-01-28T07:16:26.891Z,65.55
2019-01-28T07:18:53.192Z,65.00
2019-01-28T07:21:19.539Z,64.94
2019-01-28T07:23:46.123Z,64.98
2019-01-28T07:26:12.458Z,64.54
2019-01-28T07:28:38.774Z,63.95
2019-01-28T07:31:05.467Z,64.20
2019-01-28T07:33:32.028Z,63.94
2019-01-28T07:35:59.346Z,63.62
2019-01-28T07:38:25.675Z,63.45
2019-01-28T07:40:52.244Z,63.28
2019-01-28T07:43:18.823Z,63.15
2019-01-28T07:45:45.885Z,62.66
2019-01-28T07:48:12.239Z,62.41
2019-01-28T07:50:38.557Z,62.49
2019-01-28T07:53:04.867Z,62.37
2019-01-28T07:55:31.496Z,62.42
2019-01-28T07:57:58.116Z,62.57
2019-01-28T08:00:29.704Z,62.22
2019-01-28T08:02:56.403Z,61.91
2019-01-28T08:05:23.346Z,62.07
2019-01-28T08:07:49.645Z,62.41
2019-01-28T08:10:18.687Z,62.02
2019-01-28T08:12:45.735Z,62.05
2019-01-28T08:15:15.548Z,61.83
2019-01-28T08:17:42.107Z,61.67
2019-01-28T08:20:12.437Z,61.39
2019-01-28T08:22:39.752Z,61.51
2019-01-28T08:25:13.147Z,60.91
2019-01-28T08:27:39.581Z,60.92
2019-01-28T08:30:34.537Z,61.07
2019-01-28T08:33:02.850Z,60.88
2019-01-28T08:35:32.105Z,61.05
2019-01-28T08:37:58.777Z,61.11
2019-01-28T08:40:25.425Z,60.95
2019-01-28T08:42:51.978Z,60.83
2019-01-28T08:45:18.309Z,60.64
2019-01-28T08:47:44.875Z,60.48
2019-01-28T08:50:27.810Z,60.47
2019-01-28T08:52:54.665Z,59.97
2019-01-28T08:55:26.614Z,59.52
2019-01-28T08:57:53.624Z,59.58
2019-01-28T09:00:30.619Z,59.03
2019-01-28T09:02:57.746Z,58.67
2019-01-28T09:05:24.774Z,58.56
2019-01-28T09:07:51.233Z,58.09
2019-01-28T09:10:22.391Z,58.50
2019-01-28T09:12:48.751Z,57.74
2019-01-28T09:15:18.578Z,57.22
2019-01-28T09:17:45.167Z,56.57
2019-01-28T09:20:15.767Z,56.64
2019-01-28T09:22:42.548Z,55.63
2019-01-28T09:25:12.373Z,55.07
2019-01-28T09:27:38.739Z,53.80
2019-01-28T09:30:16.700Z,53.10
2019-01-28T09:32:43.331Z,51.63
2019-01-28T09:35:09.767Z,51.89
2019-01-28T09:37:36.184Z,51.73
2019-01-28T09:40:08.100Z,51.56
2019-01-28T09:42:34.423Z,50.65
2019-01-28T09:45:00.753Z,49.94
2019-01-28T09:47:27.178Z,49.46
2019-01-28T09:49:53.616Z,49.28
2019-01-28T09:52:20.185Z,49.34
2019-01-28T09:54:46.666Z,49.74
2019-01-28T09:57:12.992Z,49.36
2019-01-28T09:59:39.549Z,49.69
2019-01-28T10:02:06.370Z,49.25
2019-01-28T10:04:32.657Z,48.15
2019-01-28T10:06:59.098Z,48.57
2019-01-28T10:09:25.492Z,48.03
2019-01-28T10:11:51.870Z,46.33
2019-01-28T10:14:18.534Z,46.15
2019-01-28T10:16:45.139Z,47.01
2019-01-28T10:19:11.698Z,46.85
2019-01-28T10:21:38.380Z,46.48
2019-01-28T10:24:04.909Z,46.09
2019-01-28T10:26:32.209Z,46.04
2019-01-28T10:28:58.844Z,46.04
2019-01-28T10:31:27.180Z,45.61
2019-01-28T10:33:53.563Z,44.43
2019-01-28T10:36:22.740Z,45.15
2019-01-28T10:38:48.524Z,44.60
2019-01-28T10:41:14.837Z,43.81
2019-01-28T10:43:41.158Z,45.74
2019-01-28T10:46:07.466Z,46.36
2019-01-28T10:48:34.026Z,46.64
2019-01-28T10:51:00.639Z,46.50
2019-01-28T10:53:26.971Z,46.71
2019-01-28T10:55:53.551Z,47.00
2019-01-28T10:58:19.891Z,46.68
2019-01-28T11:00:47.290Z,47.15
2019-01-28T11:03:16.020Z,47.12
2019-01-28T11:05:43.332Z,46.97
2019-01-28T11:08:09.648Z,46.37
2019-01-28T11:10:36.001Z,46.71
2019-01-28T11:13:05.248Z,46.32
2019-01-28T11:15:31.717Z,46.20
2019-01-28T11:18:12.664Z,46.35
2019-01-28T11:20:39.382Z,46.18
2019-01-28T11:23:05.842Z,45.82
2019-01-28T11:25:32.248Z,46.06
2019-01-28T11:27:58.987Z,45.15
2019-01-28T11:30:39.301Z,44.39
2019-01-28T11:33:06.735Z,42.35
2019-01-28T11:35:35.612Z,43.27
2019-01-28T11:38:03.264Z,44.63
2019-01-28T11:40:29.954Z,43.46
2019-01-28T11:42:56.296Z,40.99
2019-01-28T11:45:33.421Z,37.45
2019-01-28T11:47:59.847Z,35.10
2019-01-28T11:50:26.873Z,34.64
2019-01-28T11:52:53.448Z,32.54
2019-01-28T11:55:20.034Z,32.59
2019-01-28T11:57:46.378Z,30.39
2019-01-28T12:00:26.406Z,30.60
2019-01-28T12:02:52.711Z,30.43
2019-01-28T12:05:19.278Z,30.42
2019-01-28T12:07:46.613Z,30.23
2019-01-28T12:10:13.426Z,30.32
2019-01-28T12:12:39.715Z,27.77
2019-01-28T12:15:16.340Z,28.32
2019-01-28T12:17:42.643Z,30.81
2019-01-28T12:20:11.855Z,28.83
2019-01-28T12:22:38.602Z,27.70
2019-01-28T12:25:09.461Z,26.72
2019-01-28T12:27:36.002Z,28.61
2019-01-28T12:30:08.071Z,31.46
2019-01-28T12:32:34.383Z,34.01
2019-01-28T12:35:01.002Z,37.07
2019-01-28T12:37:27.394Z,37.70
2019-01-28T12:39:53.911Z,36.46
2019-01-28T12:42:20.243Z,33.55
2019-01-28T12:44:46.869Z,30.02
2019-01-28T12:47:13.419Z,30.94
2019-01-28T12:49:40.046Z,32.21
2019-01-28T12:52:07.629Z,35.34
2019-01-28T12:54:33.931Z,36.33
2019-01-28T12:57:00.527Z,37.85
2019-01-28T12:59:27.080Z,38.80
2019-01-28T13:01:53.704Z,39.70
2019-01-28T13:04:20.275Z,38.14
2019-01-28T13:06:46.615Z,32.95
2019-01-28T13:09:14.221Z,30.84
2019-01-28T13:11:40.606Z,33.37
2019-01-28T13:14:07.218Z,34.90
2019-01-28T13:16:33.784Z,37.03
2019-01-28T13:19:00.476Z,37.70
2019-01-28T13:21:27.040Z,39.00
2019-01-28T13:23:53.693Z,39.87
2019-01-28T13:26:20.059Z,39.57
2019-01-28T13:28:46.647Z,41.22
2019-01-28T13:31:13.239Z,41.04
2019-01-28T13:33:39.556Z,41.32
2019-01-28T13:36:09.502Z,40.96
2019-01-28T13:38:34.730Z,41.64
2019-01-28T13:41:01.370Z,41.96
2019-01-28T13:43:27.715Z,41.58
2019-01-28T13:45:54.054Z,41.63
2019-01-28T13:48:20.612Z,42.15
2019-01-28T13:50:47.118Z,41.69
2019-01-28T13:53:13.452Z,40.96
2019-01-28T13:55:39.767Z,41.04
2019-01-28T13:58:06.459Z,41.38
2019-01-28T14:00:33.271Z,40.61
2019-01-28T14:03:00.258Z,39.68
2019-01-28T14:05:27.056Z,40.57
2019-01-28T14:07:54.521Z,40.49
2019-01-28T14:10:23.226Z,41.27
2019-01-28T14:12:49.750Z,41.27
2019-01-28T14:15:35.312Z,41.66
2019-01-28T14:18:02.063Z,42.29
2019-01-28T14:20:34.958Z,42.54
2019-01-28T14:23:01.267Z,44.31
2019-01-28T14:25:27.853Z,45.92
2019-01-28T14:27:54.446Z,46.13
2019-01-28T14:30:38.308Z,45.34
2019-01-28T14:33:05.849Z,45.76
2019-01-28T14:35:32.538Z,46.52
2019-01-28T14:37:59.056Z,45.73
2019-01-28T14:40:27.807Z,46.32
2019-01-28T14:42:55.108Z,46.61
2019-01-28T14:45:21.631Z,47.01
2019-01-28T14:47:48.206Z,46.80
2019-01-28T14:50:21.603Z,46.44
2019-01-28T14:52:48.206Z,46.29
2019-01-28T14:55:14.506Z,46.20
2019-01-28T14:57:41.215Z,47.43
2019-01-28T15:00:15.626Z,48.22
2019-01-28T15:02:42.270Z,47.65
2019-01-28T15:05:10.814Z,46.97
2019-01-28T15:07:37.830Z,46.72
2019-01-28T15:10:17.958Z,46.63
2019-01-28T15:12:47.594Z,47.37
2019-01-28T15:15:18.209Z,47.42
2019-01-28T15:17:44.853Z,47.87
2019-01-28T15:20:11.640Z,48.97
2019-01-28T15:22:38.814Z,49.53
2019-01-28T15:25:09.640Z,50.18
2019-01-28T15:27:36.342Z,49.78
2019-01-28T15:30:20.004Z,49.93
2019-01-28T15:32:46.815Z,50.21
2019-01-28T15:35:13.227Z,49.87
2019-01-28T15:37:39.918Z,49.60
2019-01-28T15:40:14.735Z,49.78
2019-01-28T15:42:41.108Z,50.47
2019-01-28T15:45:14.506Z,50.48
2019-01-28T15:47:41.049Z,50.99
2019-01-28T15:50:11.674Z,50.92
2019-01-28T15:52:38.019Z,50.80
2019-01-28T15:55:12.719Z,50.79
2019-01-28T15:57:39.379Z,50.76
2019-01-28T16:00:14.217Z,50.80
2019-01-28T16:02:40.906Z,51.03
2019-01-28T16:05:08.638Z,51.04
2019-01-28T16:07:35.269Z,50.81
2019-01-28T16:10:02.052Z,50.72
2019-01-28T16:12:28.379Z,50.71
2019-01-28T16:14:54.927Z,50.44
2019-01-28T16:17:21.526Z,50.35
2019-01-28T16:19:48.113Z,50.25
2019-01-28T16:22:14.712Z,50.58
2019-01-28T16:24:41.051Z,50.49
2019-01-28T16:27:07.641Z,50.73
2019-01-28T16:29:34.239Z,50.38
2019-01-28T16:32:01.057Z,50.52
2019-01-28T16:34:27.552Z,50.34
2019-01-28T16:36:54.120Z,50.95
2019-01-28T16:39:20.487Z,51.10
2019-01-28T16:41:46.784Z,50.53
2019-01-28T16:44:13.494Z,50.54
2019-01-28T16:46:41.062Z,50.49
2019-01-28T16:49:07.704Z,50.45
2019-01-28T16:51:34.281Z,51.06
2019-01-28T16:54:00.856Z,50.90
2019-01-28T16:56:28.137Z,51.23
2019-01-28T16:58:54.926Z,50.92
2019-01-28T17:01:21.243Z,50.35
2019-01-28T17:03:48.051Z,50.16
2019-01-28T17:06:14.709Z,50.08
2019-01-28T17:08:41.045Z,51.04
2019-01-28T17:11:07.380Z,50.83
2019-01-28T17:13:33.703Z,51.33
2019-01-28T17:16:00.256Z,51.30
2019-01-28T17:18:26.576Z,51.64
2019-01-28T17:20:52.953Z,51.90
2019-01-28T17:23:19.265Z,51.81
2019-01-28T17:25:46.529Z,51.94
2019-01-28T17:28:13.129Z,52.14
2019-01-28T17:30:45.681Z,51.83
2019-01-28T17:33:11.993Z,52.01
2019-01-28T17:35:38.791Z,51.84
2019-01-28T17:38:06.898Z,51.95
2019-01-28T17:40:33.706Z,51.87
2019-01-28T17:43:00.139Z,51.97
2019-01-28T17:45:27.673Z,52.35
2019-01-28T17:47:54.404Z,52.35
2019-01-28T17:50:24.604Z,53.36
2019-01-28T17:52:49.073Z,53.33
2019-01-28T17:55:15.856Z,53.45
2019-01-28T17:57:42.703Z,53.33
2019-01-28T18:00:14.724Z,53.70
2019-01-28T18:02:41.504Z,53.83
2019-01-28T18:05:09.067Z,54.30
2019-01-28T18:07:35.498Z,54.50
2019-01-28T18:10:04.390Z,54.39
2019-01-28T18:12:31.846Z,54.79
2019-01-28T18:14:58.239Z,54.81
2019-01-28T18:17:24.603Z,55.29
2019-01-28T18:19:52.322Z,55.20
2019-01-28T18:22:18.916Z,56.42
2019-01-28T18:24:45.676Z,56.96
2019-01-28T18:27:12.289Z,58.02
2019-01-28T18:29:38.627Z,59.07
2019-01-28T18:32:05.244Z,60.08
2019-01-28T18:34:31.845Z,59.89
2019-01-28T18:36:58.146Z,60.07
2019-01-28T18:39:24.460Z,59.77
2019-01-28T18:41:51.049Z,61.05
2019-01-28T18:44:17.374Z,63.30
2019-01-28T18:46:43.700Z,65.98
2019-01-28T18:49:10.018Z,67.63
2019-01-28T18:51:36.334Z,67.97
2019-01-28T18:54:03.237Z,68.49
2019-01-28T18:56:29.589Z,68.75
2019-01-28T18:59:01.226Z,68.33
2019-01-28T19:01:30.736Z,68.07
2019-01-28T19:03:57.177Z,68.32
2019-01-28T19:06:28.447Z,68.45
2019-01-28T19:18:58.494Z,70.62
2019-01-28T19:21:29.710Z,71.00
2019-01-28T19:23:56.307Z,70.62
2019-01-28T19:26:23.070Z,70.80
2019-01-28T19:28:49.481Z,70.89
2019-01-28T19:31:16.841Z,70.96
2019-01-28T19:33:43.397Z,70.91
2019-01-28T19:36:10.032Z,70.89
2019-01-28T19:38:36.695Z,70.93
2019-01-28T19:41:03.570Z,70.85
2019-01-28T19:43:30.116Z,71.14
2019-01-28T19:45:56.461Z,71.24
2019-01-28T19:48:23.252Z,71.29
2019-01-28T19:50:51.706Z,71.19
2019-01-28T19:53:18.300Z,70.88
2019-01-28T19:55:44.859Z,70.71
2019-01-28T19:58:11.479Z,70.18
2019-01-28T20:00:37.782Z,70.94
2019-01-28T20:03:05.801Z,71.25
2019-01-28T20:05:32.123Z,70.39
2019-01-28T20:07:58.564Z,71.03
2019-01-28T20:10:25.168Z,70.86
2019-01-28T20:12:51.850Z,71.07
2019-01-28T20:15:22.019Z,70.65
2019-01-28T20:17:48.605Z,70.47
2019-01-28T20:20:17.584Z,70.52
2019-01-28T20:22:44.122Z,70.38
2019-01-28T20:25:13.691Z,69.99
2019-01-28T20:27:40.643Z,69.51
2019-01-28T20:30:17.210Z,68.52
2019-01-28T20:32:43.970Z,67.94
2019-01-28T20:35:12.490Z,67.95
2019-01-28T20:37:38.857Z,68.20
2019-01-28T20:40:09.525Z,68.92
2019-01-28T20:42:35.892Z,68.54
2019-01-28T20:45:05.649Z,67.52
2019-01-28T20:47:32.965Z,67.60
2019-01-28T20:49:59.408Z,68.88
2019-01-28T20:52:25.999Z,70.44
2019-01-28T20:54:52.822Z,70.13
2019-01-28T20:57:19.402Z,70.57
2019-01-28T20:59:46.070Z,70.32
2019-01-28T21:02:12.371Z,70.69
2019-01-28T21:04:38.997Z,70.99
2019-01-28T21:07:05.372Z,71.54
2019-01-28T21:09:31.955Z,71.00
2019-01-28T21:11:58.474Z,70.72
2019-01-28T21:14:24.930Z,70.62
2019-01-28T21:16:51.474Z,71.17
2019-01-28T21:19:17.779Z,71.41
2019-01-28T21:21:44.150Z,72.13
2019-01-28T21:24:10.711Z,72.54
2019-01-28T21:26:37.294Z,72.25
2019-01-28T21:29:03.811Z,72.45
2019-01-28T21:31:30.438Z,71.87
2019-01-28T21:33:57.064Z,72.09
2019-01-28T21:36:25.568Z,72.00
2019-01-28T21:38:52.163Z,72.55
2019-01-28T21:41:18.762Z,72.60
2019-01-28T21:43:45.277Z,73.10
2019-01-28T21:46:11.575Z,73.48
2019-01-28T21:48:37.918Z,73.01
2019-01-28T21:51:04.435Z,72.82
2019-01-28T21:53:31.111Z,72.46
2019-01-28T21:55:57.475Z,71.44
2019-01-28T21:58:24.022Z,72.51
2019-01-28T22:00:50.389Z,74.12
2019-01-28T22:03:17.080Z,73.68
2019-01-28T22:05:43.520Z,72.77
2019-01-28T22:08:10.135Z,73.06
2019-01-28T22:10:36.895Z,73.07
2019-01-28T22:13:03.692Z,72.61
2019-01-28T22:15:30.024Z,72.11
2019-01-28T22:17:56.346Z,72.24
2019-01-28T22:20:22.684Z,72.80
2019-01-28T22:22:48.996Z,71.50
2019-01-28T22:25:16.140Z,71.24
2019-01-28T22:27:42.787Z,72.70
2019-01-28T22:30:22.825Z,72.70
2019-01-28T22:32:49.555Z,72.90
2019-01-28T22:35:16.479Z,72.90
2019-01-28T22:37:42.825Z,72.40
2019-01-28T22:40:15.264Z,72.96
2019-01-28T22:42:41.877Z,72.48
2019-01-28T22:45:14.996Z,72.88
2019-01-28T22:47:41.556Z,72.89
2019-01-28T22:50:13.198Z,72.53
2019-01-28T22:52:39.856Z,72.70
2019-01-28T22:55:09.688Z,73.19
2019-01-28T22:57:36.368Z,73.70
2019-01-28T23:00:21.698Z,74.63
2019-01-28T23:02:49.944Z,74.05
2019-01-28T23:05:16.281Z,74.52
2019-01-28T23:07:43.360Z,73.95
2019-01-28T23:10:10.067Z,75.01
2019-01-28T23:12:36.453Z,75.17
2019-01-28T23:15:08.969Z,74.39
2019-01-28T23:17:35.543Z,74.93
2019-01-28T23:20:03.801Z,75.40
2019-01-28T23:22:30.409Z,75.37
2019-01-28T23:24:56.976Z,75.92
2019-01-28T23:27:23.346Z,75.85
2019-01-28T23:29:49.641Z,75.63
2019-01-28T23:32:16.238Z,76.61
2019-01-28T23:34:42.532Z,77.88
2019-01-28T23:37:09.087Z,77.02
2019-01-28T23:39:35.416Z,76.11
2019-01-28T23:42:03.664Z,75.85
2019-01-28T23:44:29.993Z,76.36
2019-01-28T23:46:56.310Z,76.38
2019-01-28T23:49:22.634Z,78.17
2019-01-28T23:51:48.938Z,77.86
2019-01-28T23:54:15.266Z,76.72
2019-01-28T23:56:41.870Z,76.50
2019-01-28T23:59:08.512Z,76.22
